sensor_id;sensor_type;location;lat;lon;timestamp;P1;P2;P0
67892;PMS7003;54688;52.376;16.744;2023-02-28T00:02:28;52;40;
67892;PMS7003;54688;52.376;16.744;2023-02-28T00:05:31;51;37;
67892;PMS7003;54688;52.376;16.744;2023-02-28T00:08:34;55;42;
67892;PMS7003;54688;52.376;16.744;2023-02-28T00:11:35;55;43;
67892;PMS7003;54688;52.376;16.744;2023-02-28T00:14:37;63;44;
67892;PMS7003;54688;52.376;16.744;2023-02-28T00:17:39;71;47;
67892;PMS7003;54688;52.376;16.744;2023-02-28T00:20:42;59;45;
67892;PMS7003;54688;52.376;16.744;2023-02-28T00:23:45;60;43;
67892;PMS7003;54688;52.376;16.744;2023-02-28T00:26:47;71;48;
67892;PMS7003;54688;52.376;16.744;2023-02-28T00:29:49;69;51;
67892;PMS7003;54688;52.376;16.744;2023-02-28T00:32:52;67;49;
67892;PMS7003;54688;52.376;16.744;2023-02-28T00:36:02;71;47;
67892;PMS7003;54688;52.376;16.744;2023-02-28T00:39:04;67;52;
67892;PMS7003;54688;52.376;16.744;2023-02-28T00:42:08;59;45;
67892;PMS7003;54688;52.376;16.744;2023-02-28T00:45:10;65;46;
67892;PMS7003;54688;52.376;16.744;2023-02-28T00:48:12;60;47;
67892;PMS7003;54688;52.376;16.744;2023-02-28T00:51:14;64;45;
67892;PMS7003;54688;52.376;16.744;2023-02-28T00:54:18;54;46;
67892;PMS7003;54688;52.376;16.744;2023-02-28T00:57:20;56;43;
67892;PMS7003;54688;52.376;16.744;2023-02-28T01:00:22;57;43;
67892;PMS7003;54688;52.376;16.744;2023-02-28T01:03:24;58;45;
67892;PMS7003;54688;52.376;16.744;2023-02-28T01:06:26;62;46;
67892;PMS7003;54688;52.376;16.744;2023-02-28T01:09:29;54;40;
67892;PMS7003;54688;52.376;16.744;2023-02-28T01:12:32;59;46;
67892;PMS7003;54688;52.376;16.744;2023-02-28T01:15:34;60;44;
67892;PMS7003;54688;52.376;16.744;2023-02-28T01:18:37;55;45;
67892;PMS7003;54688;52.376;16.744;2023-02-28T01:21:39;61;47;
67892;PMS7003;54688;52.376;16.744;2023-02-28T01:24:41;55;44;
67892;PMS7003;54688;52.376;16.744;2023-02-28T01:27:43;64;49;
67892;PMS7003;54688;52.376;16.744;2023-02-28T01:30:47;61;48;
67892;PMS7003;54688;52.376;16.744;2023-02-28T01:33:50;55;42;
67892;PMS7003;54688;52.376;16.744;2023-02-28T01:36:52;57;44;
67892;PMS7003;54688;52.376;16.744;2023-02-28T01:39:54;60;45;
67892;PMS7003;54688;52.376;16.744;2023-02-28T01:42:56;57;46;
67892;PMS7003;54688;52.376;16.744;2023-02-28T01:45:58;63;43;
67892;PMS7003;54688;52.376;16.744;2023-02-28T01:49:05;56;43;
67892;PMS7003;54688;52.376;16.744;2023-02-28T01:52:09;57;43;
67892;PMS7003;54688;52.376;16.744;2023-02-28T01:55:15;59;46;
67892;PMS7003;54688;52.376;16.744;2023-02-28T01:58:18;65;47;
67892;PMS7003;54688;52.376;16.744;2023-02-28T02:01:21;57;46;
67892;PMS7003;54688;52.376;16.744;2023-02-28T02:04:27;58;42;
67892;PMS7003;54688;52.376;16.744;2023-02-28T02:07:35;61;46;
67892;PMS7003;54688;52.376;16.744;2023-02-28T02:10:41;63;44;
67892;PMS7003;54688;52.376;16.744;2023-02-28T02:14:03;54;42;
67892;PMS7003;54688;52.376;16.744;2023-02-28T02:17:16;60;48;
67892;PMS7003;54688;52.376;16.744;2023-02-28T02:20:43;59;41;
67892;PMS7003;54688;52.376;16.744;2023-02-28T02:25:56;56;45;
67892;PMS7003;54688;52.376;16.744;2023-02-28T02:29:14;60;41;
67892;PMS7003;54688;52.376;16.744;2023-02-28T02:32:39;55;41;
67892;PMS7003;54688;52.376;16.744;2023-02-28T02:35:51;53;43;
67892;PMS7003;54688;52.376;16.744;2023-02-28T02:41:53;61;43;
67892;PMS7003;54688;52.376;16.744;2023-02-28T02:44:59;53;41;
67892;PMS7003;54688;52.376;16.744;2023-02-28T02:48:07;57;43;
67892;PMS7003;54688;52.376;16.744;2023-02-28T02:51:13;58;43;
67892;PMS7003;54688;52.376;16.744;2023-02-28T02:57:18;57;44;
67892;PMS7003;54688;52.376;16.744;2023-02-28T03:00:25;58;41;
67892;PMS7003;54688;52.376;16.744;2023-02-28T03:03:30;61;42;
67892;PMS7003;54688;52.376;16.744;2023-02-28T03:06:34;57;44;
67892;PMS7003;54688;52.376;16.744;2023-02-28T03:09:36;57;44;
67892;PMS7003;54688;52.376;16.744;2023-02-28T03:12:42;52;40;
67892;PMS7003;54688;52.376;16.744;2023-02-28T03:15:58;46;38;
67892;PMS7003;54688;52.376;16.744;2023-02-28T03:19:22;51;40;
67892;PMS7003;54688;52.376;16.744;2023-02-28T03:22:41;55;41;
67892;PMS7003;54688;52.376;16.744;2023-02-28T03:25:53;51;38;
67892;PMS7003;54688;52.376;16.744;2023-02-28T03:29:03;55;44;
67892;PMS7003;54688;52.376;16.744;2023-02-28T03:32:11;53;41;
67892;PMS7003;54688;52.376;16.744;2023-02-28T03:35:19;59;44;
67892;PMS7003;54688;52.376;16.744;2023-02-28T03:38:27;62;48;
67892;PMS7003;54688;52.376;16.744;2023-02-28T03:41:32;64;45;
67892;PMS7003;54688;52.376;16.744;2023-02-28T03:44:41;55;42;
67892;PMS7003;54688;52.376;16.744;2023-02-28T03:50:44;54;41;
67892;PMS7003;54688;52.376;16.744;2023-02-28T03:53:50;61;44;
67892;PMS7003;54688;52.376;16.744;2023-02-28T03:56:59;67;44;
67892;PMS7003;54688;52.376;16.744;2023-02-28T04:00:11;61;43;
67892;PMS7003;54688;52.376;16.744;2023-02-28T04:03:14;62;45;
67892;PMS7003;54688;52.376;16.744;2023-02-28T04:06:18;61;44;
67892;PMS7003;54688;52.376;16.744;2023-02-28T04:09:21;61;46;
67892;PMS7003;54688;52.376;16.744;2023-02-28T04:12:24;55;45;
67892;PMS7003;54688;52.376;16.744;2023-02-28T04:15:26;49;40;
67892;PMS7003;54688;52.376;16.744;2023-02-28T04:18:28;59;42;
67892;PMS7003;54688;52.376;16.744;2023-02-28T04:21:32;57;38;
67892;PMS7003;54688;52.376;16.744;2023-02-28T04:24:35;59;44;
67892;PMS7003;54688;52.376;16.744;2023-02-28T04:27:38;65;46;
67892;PMS7003;54688;52.376;16.744;2023-02-28T04:30:40;62;48;
67892;PMS7003;54688;52.376;16.744;2023-02-28T04:33:42;60;48;
67892;PMS7003;54688;52.376;16.744;2023-02-28T04:36:45;65;46;
67892;PMS7003;54688;52.376;16.744;2023-02-28T04:39:47;61;47;
67892;PMS7003;54688;52.376;16.744;2023-02-28T04:42:50;67;48;
67892;PMS7003;54688;52.376;16.744;2023-02-28T04:45:52;65;47;
67892;PMS7003;54688;52.376;16.744;2023-02-28T04:51:53;59;42;
67892;PMS7003;54688;52.376;16.744;2023-02-28T04:54:56;61;43;
67892;PMS7003;54688;52.376;16.744;2023-02-28T04:57:58;64;47;
67892;PMS7003;54688;52.376;16.744;2023-02-28T05:01:02;66;47;
67892;PMS7003;54688;52.376;16.744;2023-02-28T05:04:04;66;45;
67892;PMS7003;54688;52.376;16.744;2023-02-28T05:07:06;53;42;
67892;PMS7003;54688;52.376;16.744;2023-02-28T05:10:10;66;48;
67892;PMS7003;54688;52.376;16.744;2023-02-28T05:13:13;59;47;
67892;PMS7003;54688;52.376;16.744;2023-02-28T05:16:17;69;52;
67892;PMS7003;54688;52.376;16.744;2023-02-28T05:19:19;66;50;
67892;PMS7003;54688;52.376;16.744;2023-02-28T05:22:22;69;51;
67892;PMS7003;54688;52.376;16.744;2023-02-28T05:25:25;70;49;
67892;PMS7003;54688;52.376;16.744;2023-02-28T05:28:27;78;57;
67892;PMS7003;54688;52.376;16.744;2023-02-28T05:31:29;68;53;
67892;PMS7003;54688;52.376;16.744;2023-02-28T05:34:31;71;54;
67892;PMS7003;54688;52.376;16.744;2023-02-28T05:37:33;73;54;
67892;PMS7003;54688;52.376;16.744;2023-02-28T05:43:36;71;52;
67892;PMS7003;54688;52.376;16.744;2023-02-28T05:46:38;73;51;
67892;PMS7003;54688;52.376;16.744;2023-02-28T05:49:41;70;51;
67892;PMS7003;54688;52.376;16.744;2023-02-28T05:52:49;75;50;
67892;PMS7003;54688;52.376;16.744;2023-02-28T05:58:49;60;48;
67892;PMS7003;54688;52.376;16.744;2023-02-28T06:01:52;62;45;
67892;PMS7003;54688;52.376;16.744;2023-02-28T06:07:53;72;54;
67892;PMS7003;54688;52.376;16.744;2023-02-28T06:10:54;67;49;
67892;PMS7003;54688;52.376;16.744;2023-02-28T06:13:59;67;52;
67892;PMS7003;54688;52.376;16.744;2023-02-28T06:17:03;62;46;
67892;PMS7003;54688;52.376;16.744;2023-02-28T06:20:06;66;48;
67892;PMS7003;54688;52.376;16.744;2023-02-28T06:23:09;70;50;
67892;PMS7003;54688;52.376;16.744;2023-02-28T06:26:11;73;53;
67892;PMS7003;54688;52.376;16.744;2023-02-28T06:29:13;79;54;
67892;PMS7003;54688;52.376;16.744;2023-02-28T06:32:16;63;48;
67892;PMS7003;54688;52.376;16.744;2023-02-28T06:35:18;71;54;
67892;PMS7003;54688;52.376;16.744;2023-02-28T06:38:21;76;55;
67892;PMS7003;54688;52.376;16.744;2023-02-28T06:41:24;72;53;
67892;PMS7003;54688;52.376;16.744;2023-02-28T06:44:26;71;50;
67892;PMS7003;54688;52.376;16.744;2023-02-28T06:47:30;67;52;
67892;PMS7003;54688;52.376;16.744;2023-02-28T06:50:33;71;50;
67892;PMS7003;54688;52.376;16.744;2023-02-28T06:53:36;65;48;
67892;PMS7003;54688;52.376;16.744;2023-02-28T06:56:38;58;45;
67892;PMS7003;54688;52.376;16.744;2023-02-28T06:59:41;60;47;
67892;PMS7003;54688;52.376;16.744;2023-02-28T07:02:45;63;44;
67892;PMS7003;54688;52.376;16.744;2023-02-28T07:05:47;55;44;
67892;PMS7003;54688;52.376;16.744;2023-02-28T07:08:50;62;47;
67892;PMS7003;54688;52.376;16.744;2023-02-28T07:11:53;60;44;
67892;PMS7003;54688;52.376;16.744;2023-02-28T07:14:55;61;45;
67892;PMS7003;54688;52.376;16.744;2023-02-28T07:17:57;70;49;
67892;PMS7003;54688;52.376;16.744;2023-02-28T07:21:02;68;49;
67892;PMS7003;54688;52.376;16.744;2023-02-28T07:24:05;68;51;
67892;PMS7003;54688;52.376;16.744;2023-02-28T07:27:07;68;51;
67892;PMS7003;54688;52.376;16.744;2023-02-28T07:30:11;57;43;
67892;PMS7003;54688;52.376;16.744;2023-02-28T07:33:13;68;49;
67892;PMS7003;54688;52.376;16.744;2023-02-28T07:36:16;63;49;
67892;PMS7003;54688;52.376;16.744;2023-02-28T07:39:19;62;46;
67892;PMS7003;54688;52.376;16.744;2023-02-28T07:42:21;66;48;
67892;PMS7003;54688;52.376;16.744;2023-02-28T07:45:23;67;48;
67892;PMS7003;54688;52.376;16.744;2023-02-28T07:51:24;60;45;
67892;PMS7003;54688;52.376;16.744;2023-02-28T07:54:26;64;47;
67892;PMS7003;54688;52.376;16.744;2023-02-28T07:57:28;60;46;
67892;PMS7003;54688;52.376;16.744;2023-02-28T08:00:30;64;50;
67892;PMS7003;54688;52.376;16.744;2023-02-28T08:03:33;65;47;
67892;PMS7003;54688;52.376;16.744;2023-02-28T08:06:36;57;47;
67892;PMS7003;54688;52.376;16.744;2023-02-28T08:09:38;66;41;
67892;PMS7003;54688;52.376;16.744;2023-02-28T08:12:41;58;43;
67892;PMS7003;54688;52.376;16.744;2023-02-28T08:15:43;65;50;
67892;PMS7003;54688;52.376;16.744;2023-02-28T08:18:45;59;45;
67892;PMS7003;54688;52.376;16.744;2023-02-28T08:21:48;54;46;
67892;PMS7003;54688;52.376;16.744;2023-02-28T08:24:50;63;46;
67892;PMS7003;54688;52.376;16.744;2023-02-28T08:27:53;55;44;
67892;PMS7003;54688;52.376;16.744;2023-02-28T08:30:55;59;42;
67892;PMS7003;54688;52.376;16.744;2023-02-28T08:33:57;56;45;
67892;PMS7003;54688;52.376;16.744;2023-02-28T08:36:59;59;45;
67892;PMS7003;54688;52.376;16.744;2023-02-28T08:40:02;59;46;
67892;PMS7003;54688;52.376;16.744;2023-02-28T08:43:04;58;43;
67892;PMS7003;54688;52.376;16.744;2023-02-28T08:46:08;55;42;
67892;PMS7003;54688;52.376;16.744;2023-02-28T08:49:13;55;40;
67892;PMS7003;54688;52.376;16.744;2023-02-28T08:52:15;49;42;
67892;PMS7003;54688;52.376;16.744;2023-02-28T08:55:18;56;42;
67892;PMS7003;54688;52.376;16.744;2023-02-28T08:58:20;54;40;
67892;PMS7003;54688;52.376;16.744;2023-02-28T09:01:23;58;43;
67892;PMS7003;54688;52.376;16.744;2023-02-28T09:04:26;53;40;
67892;PMS7003;54688;52.376;16.744;2023-02-28T09:07:28;52;41;
67892;PMS7003;54688;52.376;16.744;2023-02-28T09:10:30;52;42;
67892;PMS7003;54688;52.376;16.744;2023-02-28T09:13:33;55;38;
67892;PMS7003;54688;52.376;16.744;2023-02-28T09:19:34;48;38;
67892;PMS7003;54688;52.376;16.744;2023-02-28T09:22:36;55;43;
67892;PMS7003;54688;52.376;16.744;2023-02-28T09:28:38;47;38;
67892;PMS7003;54688;52.376;16.744;2023-02-28T09:31:40;50;38;
67892;PMS7003;54688;52.376;16.744;2023-02-28T09:34:43;50;36;
67892;PMS7003;54688;52.376;16.744;2023-02-28T09:37:45;40;33;
67892;PMS7003;54688;52.376;16.744;2023-02-28T09:40:51;46;35;
67892;PMS7003;54688;52.376;16.744;2023-02-28T09:43:55;42;35;
67892;PMS7003;54688;52.376;16.744;2023-02-28T09:47:01;43;34;
67892;PMS7003;54688;52.376;16.744;2023-02-28T09:50:17;34;26;
67892;PMS7003;54688;52.376;16.744;2023-02-28T09:53:22;43;32;
67892;PMS7003;54688;52.376;16.744;2023-02-28T09:56:31;33;23;
67892;PMS7003;54688;52.376;16.744;2023-02-28T09:59:41;42;31;
67892;PMS7003;54688;52.376;16.744;2023-02-28T10:02:53;41;27;
67892;PMS7003;54688;52.376;16.744;2023-02-28T10:06:01;28;23;
67892;PMS7003;54688;52.376;16.744;2023-02-28T10:09:10;35;27;
67892;PMS7003;54688;52.376;16.744;2023-02-28T10:12:14;38;28;
67892;PMS7003;54688;52.376;16.744;2023-02-28T10:15:21;34;24;
67892;PMS7003;54688;52.376;16.744;2023-02-28T10:18:28;28;22;
67892;PMS7003;54688;52.376;16.744;2023-02-28T10:21:36;23;19;
67892;PMS7003;54688;52.376;16.744;2023-02-28T10:24:43;16;11;
67892;PMS7003;54688;52.376;16.744;2023-02-28T10:27:46;19;13;
67892;PMS7003;54688;52.376;16.744;2023-02-28T10:30:49;16;13;
67892;PMS7003;54688;52.376;16.744;2023-02-28T10:33:51;21;15;
67892;PMS7003;54688;52.376;16.744;2023-02-28T10:36:54;23;20;
67892;PMS7003;54688;52.376;16.744;2023-02-28T10:39:57;18;13;
67892;PMS7003;54688;52.376;16.744;2023-02-28T10:43:02;23;15;
67892;PMS7003;54688;52.376;16.744;2023-02-28T10:46:11;27;22;
67892;PMS7003;54688;52.376;16.744;2023-02-28T10:49:17;23;18;
67892;PMS7003;54688;52.376;16.744;2023-02-28T10:52:39;16;13;
67892;PMS7003;54688;52.376;16.744;2023-02-28T10:55:42;22;17;
67892;PMS7003;54688;52.376;16.744;2023-02-28T10:58:49;26;22;
67892;PMS7003;54688;52.376;16.744;2023-02-28T11:01:52;28;23;
67892;PMS7003;54688;52.376;16.744;2023-02-28T11:04:54;20;19;
67892;PMS7003;54688;52.376;16.744;2023-02-28T11:08:06;20;17;
67892;PMS7003;54688;52.376;16.744;2023-02-28T11:11:12;24;21;
67892;PMS7003;54688;52.376;16.744;2023-02-28T11:14:19;18;17;
67892;PMS7003;54688;52.376;16.744;2023-02-28T11:17:24;21;19;
67892;PMS7003;54688;52.376;16.744;2023-02-28T11:20:29;17;17;
67892;PMS7003;54688;52.376;16.744;2023-02-28T11:23:34;26;19;
67892;PMS7003;54688;52.376;16.744;2023-02-28T11:26:41;31;22;
67892;PMS7003;54688;52.376;16.744;2023-02-28T11:29:47;23;21;
67892;PMS7003;54688;52.376;16.744;2023-02-28T11:32:49;24;21;
67892;PMS7003;54688;52.376;16.744;2023-02-28T11:35:52;28;21;
67892;PMS7003;54688;52.376;16.744;2023-02-28T11:38:59;31;24;
67892;PMS7003;54688;52.376;16.744;2023-02-28T11:42:11;28;20;
67892;PMS7003;54688;52.376;16.744;2023-02-28T11:45:22;29;21;
67892;PMS7003;54688;52.376;16.744;2023-02-28T11:48:34;24;19;
67892;PMS7003;54688;52.376;16.744;2023-02-28T11:51:47;27;20;
67892;PMS7003;54688;52.376;16.744;2023-02-28T11:54:59;33;28;
67892;PMS7003;54688;52.376;16.744;2023-02-28T11:58:14;29;23;
67892;PMS7003;54688;52.376;16.744;2023-02-28T12:01:28;30;23;
67892;PMS7003;54688;52.376;16.744;2023-02-28T12:04:41;30;27;
67892;PMS7003;54688;52.376;16.744;2023-02-28T12:07:59;31;23;
67892;PMS7003;54688;52.376;16.744;2023-02-28T12:11:11;21;20;
67892;PMS7003;54688;52.376;16.744;2023-02-28T12:14:28;25;22;
67892;PMS7003;54688;52.376;16.744;2023-02-28T12:20:37;23;21;
67892;PMS7003;54688;52.376;16.744;2023-02-28T12:23:57;27;21;
67892;PMS7003;54688;52.376;16.744;2023-02-28T12:27:05;28;24;
67892;PMS7003;54688;52.376;16.744;2023-02-28T12:30:16;27;22;
67892;PMS7003;54688;52.376;16.744;2023-02-28T12:33:22;26;23;
67892;PMS7003;54688;52.376;16.744;2023-02-28T12:36:27;29;25;
67892;PMS7003;54688;52.376;16.744;2023-02-28T12:39:31;25;21;
67892;PMS7003;54688;52.376;16.744;2023-02-28T12:42:39;23;22;
67892;PMS7003;54688;52.376;16.744;2023-02-28T12:45:46;18;15;
67892;PMS7003;54688;52.376;16.744;2023-02-28T12:48:52;31;22;
67892;PMS7003;54688;52.376;16.744;2023-02-28T12:51:58;18;15;
67892;PMS7003;54688;52.376;16.744;2023-02-28T12:55:06;20;17;
67892;PMS7003;54688;52.376;16.744;2023-02-28T12:58:13;22;17;
67892;PMS7003;54688;52.376;16.744;2023-02-28T13:01:38;23;18;
67892;PMS7003;54688;52.376;16.744;2023-02-28T13:05:06;19;17;
67892;PMS7003;54688;52.376;16.744;2023-02-28T13:08:21;17;14;
67892;PMS7003;54688;52.376;16.744;2023-02-28T13:11:29;21;17;
67892;PMS7003;54688;52.376;16.744;2023-02-28T13:14:36;19;18;
67892;PMS7003;54688;52.376;16.744;2023-02-28T13:17:40;18;17;
67892;PMS7003;54688;52.376;16.744;2023-02-28T13:20:47;15;15;
67892;PMS7003;54688;52.376;16.744;2023-02-28T13:24:00;22;16;
67892;PMS7003;54688;52.376;16.744;2023-02-28T13:27:23;23;18;
67892;PMS7003;54688;52.376;16.744;2023-02-28T13:31:29;25;22;
67892;PMS7003;54688;52.376;16.744;2023-02-28T13:34:32;19;17;
67892;PMS7003;54688;52.376;16.744;2023-02-28T13:37:36;25;20;
67892;PMS7003;54688;52.376;16.744;2023-02-28T13:40:38;20;17;
67892;PMS7003;54688;52.376;16.744;2023-02-28T13:44:13;23;17;
67892;PMS7003;54688;52.376;16.744;2023-02-28T13:47:27;22;21;
67892;PMS7003;54688;52.376;16.744;2023-02-28T13:50:33;21;18;
67892;PMS7003;54688;52.376;16.744;2023-02-28T13:53:59;25;19;
67892;PMS7003;54688;52.376;16.744;2023-02-28T13:57:13;27;18;
67892;PMS7003;54688;52.376;16.744;2023-02-28T14:00:30;19;13;
67892;PMS7003;54688;52.376;16.744;2023-02-28T14:03:45;18;15;
67892;PMS7003;54688;52.376;16.744;2023-02-28T14:06:50;18;16;
67892;PMS7003;54688;52.376;16.744;2023-02-28T14:09:58;18;16;
67892;PMS7003;54688;52.376;16.744;2023-02-28T14:13:11;22;18;
67892;PMS7003;54688;52.376;16.744;2023-02-28T14:16:14;18;15;
67892;PMS7003;54688;52.376;16.744;2023-02-28T14:19:22;22;20;
67892;PMS7003;54688;52.376;16.744;2023-02-28T14:22:44;24;22;
67892;PMS7003;54688;52.376;16.744;2023-02-28T14:25:55;26;19;
67892;PMS7003;54688;52.376;16.744;2023-02-28T14:29:17;24;21;
67892;PMS7003;54688;52.376;16.744;2023-02-28T14:32:25;21;16;
67892;PMS7003;54688;52.376;16.744;2023-02-28T14:35:40;23;18;
67892;PMS7003;54688;52.376;16.744;2023-02-28T14:38:47;24;24;
67892;PMS7003;54688;52.376;16.744;2023-02-28T14:41:51;20;14;
67892;PMS7003;54688;52.376;16.744;2023-02-28T14:44:55;21;18;
67892;PMS7003;54688;52.376;16.744;2023-02-28T14:48:00;19;14;
67892;PMS7003;54688;52.376;16.744;2023-02-28T14:51:03;22;18;
67892;PMS7003;54688;52.376;16.744;2023-02-28T14:54:06;22;17;
67892;PMS7003;54688;52.376;16.744;2023-02-28T14:57:21;19;16;
67892;PMS7003;54688;52.376;16.744;2023-02-28T15:00:25;31;22;
67892;PMS7003;54688;52.376;16.744;2023-02-28T15:03:31;19;15;
67892;PMS7003;54688;52.376;16.744;2023-02-28T15:06:34;21;19;
67892;PMS7003;54688;52.376;16.744;2023-02-28T15:09:36;19;16;
67892;PMS7003;54688;52.376;16.744;2023-02-28T15:12:40;18;13;
67892;PMS7003;54688;52.376;16.744;2023-02-28T15:15:47;25;16;
67892;PMS7003;54688;52.376;16.744;2023-02-28T15:18:54;20;17;
67892;PMS7003;54688;52.376;16.744;2023-02-28T15:21:59;16;13;
67892;PMS7003;54688;52.376;16.744;2023-02-28T15:25:02;22;20;
67892;PMS7003;54688;52.376;16.744;2023-02-28T15:28:14;25;22;
67892;PMS7003;54688;52.376;16.744;2023-02-28T15:31:21;21;17;
67892;PMS7003;54688;52.376;16.744;2023-02-28T15:34:28;14;12;
67892;PMS7003;54688;52.376;16.744;2023-02-28T15:37:40;19;13;
67892;PMS7003;54688;52.376;16.744;2023-02-28T15:40:44;15;15;
67892;PMS7003;54688;52.376;16.744;2023-02-28T15:43:46;14;13;
67892;PMS7003;54688;52.376;16.744;2023-02-28T15:46:55;21;16;
67892;PMS7003;54688;52.376;16.744;2023-02-28T15:50:00;19;17;
67892;PMS7003;54688;52.376;16.744;2023-02-28T15:53:03;21;15;
67892;PMS7003;54688;52.376;16.744;2023-02-28T15:56:12;22;18;
67892;PMS7003;54688;52.376;16.744;2023-02-28T15:59:19;20;18;
67892;PMS7003;54688;52.376;16.744;2023-02-28T16:02:31;29;23;
67892;PMS7003;54688;52.376;16.744;2023-02-28T16:05:33;25;22;
67892;PMS7003;54688;52.376;16.744;2023-02-28T16:08:36;23;21;
67892;PMS7003;54688;52.376;16.744;2023-02-28T16:11:41;19;19;
67892;PMS7003;54688;52.376;16.744;2023-02-28T16:14:44;31;21;
67892;PMS7003;54688;52.376;16.744;2023-02-28T16:20:46;56;41;
67892;PMS7003;54688;52.376;16.744;2023-02-28T16:23:48;37;32;
67892;PMS7003;54688;52.376;16.744;2023-02-28T16:26:53;42;34;
67892;PMS7003;54688;52.376;16.744;2023-02-28T16:29:56;37;30;
67892;PMS7003;54688;52.376;16.744;2023-02-28T16:32:59;39;30;
67892;PMS7003;54688;52.376;16.744;2023-02-28T16:36:01;41;33;
67892;PMS7003;54688;52.376;16.744;2023-02-28T16:39:04;48;38;
67892;PMS7003;54688;52.376;16.744;2023-02-28T16:42:06;61;43;
67892;PMS7003;54688;52.376;16.744;2023-02-28T16:45:15;74;54;
67892;PMS7003;54688;52.376;16.744;2023-02-28T16:48:17;70;52;
67892;PMS7003;54688;52.376;16.744;2023-02-28T16:54:18;73;52;
67892;PMS7003;54688;52.376;16.744;2023-02-28T16:57:22;69;51;
67892;PMS7003;54688;52.376;16.744;2023-02-28T17:00:27;55;42;
67892;PMS7003;54688;52.376;16.744;2023-02-28T17:03:29;32;26;
67892;PMS7003;54688;52.376;16.744;2023-02-28T17:06:31;27;25;
67892;PMS7003;54688;52.376;16.744;2023-02-28T17:09:33;31;21;
67892;PMS7003;54688;52.376;16.744;2023-02-28T17:12:35;42;33;
67892;PMS7003;54688;52.376;16.744;2023-02-28T17:15:38;49;41;
67892;PMS7003;54688;52.376;16.744;2023-02-28T17:18:40;55;46;
67892;PMS7003;54688;52.376;16.744;2023-02-28T17:21:43;59;45;
67892;PMS7003;54688;52.376;16.744;2023-02-28T17:24:46;63;46;
67892;PMS7003;54688;52.376;16.744;2023-02-28T17:27:49;60;45;
67892;PMS7003;54688;52.376;16.744;2023-02-28T17:30:51;62;46;
67892;PMS7003;54688;52.376;16.744;2023-02-28T17:33:53;70;53;
67892;PMS7003;54688;52.376;16.744;2023-02-28T17:36:55;73;55;
67892;PMS7003;54688;52.376;16.744;2023-02-28T17:39:57;76;56;
67892;PMS7003;54688;52.376;16.744;2023-02-28T17:43:00;82;59;
67892;PMS7003;54688;52.376;16.744;2023-02-28T17:46:02;78;63;
67892;PMS7003;54688;52.376;16.744;2023-02-28T17:49:04;86;65;
67892;PMS7003;54688;52.376;16.744;2023-02-28T17:52:07;84;65;
67892;PMS7003;54688;52.376;16.744;2023-02-28T17:55:10;84;71;
67892;PMS7003;54688;52.376;16.744;2023-02-28T17:58:12;82;68;
67892;PMS7003;54688;52.376;16.744;2023-02-28T18:01:14;86;60;
67892;PMS7003;54688;52.376;16.744;2023-02-28T18:04:16;92;68;
67892;PMS7003;54688;52.376;16.744;2023-02-28T18:07:20;107;91;
67892;PMS7003;54688;52.376;16.744;2023-02-28T18:10:24;112;88;
67892;PMS7003;54688;52.376;16.744;2023-02-28T18:13:26;124;96;
67892;PMS7003;54688;52.376;16.744;2023-02-28T18:16:28;156;123;
67892;PMS7003;54688;52.376;16.744;2023-02-28T18:19:31;170;134;
67892;PMS7003;54688;52.376;16.744;2023-02-28T18:22:33;154;122;
67892;PMS7003;54688;52.376;16.744;2023-02-28T18:25:35;121;94;
67892;PMS7003;54688;52.376;16.744;2023-02-28T18:28:37;109;85;
67892;PMS7003;54688;52.376;16.744;2023-02-28T18:31:40;109;84;
67892;PMS7003;54688;52.376;16.744;2023-02-28T18:34:42;102;79;
67892;PMS7003;54688;52.376;16.744;2023-02-28T18:37:44;108;80;
67892;PMS7003;54688;52.376;16.744;2023-02-28T18:40:51;98;75;
67892;PMS7003;54688;52.376;16.744;2023-02-28T18:43:53;90;72;
67892;PMS7003;54688;52.376;16.744;2023-02-28T18:46:55;83;67;
67892;PMS7003;54688;52.376;16.744;2023-02-28T18:49:58;110;90;
67892;PMS7003;54688;52.376;16.744;2023-02-28T18:53:00;100;74;
67892;PMS7003;54688;52.376;16.744;2023-02-28T18:56:02;103;80;
67892;PMS7003;54688;52.376;16.744;2023-02-28T18:59:05;131;106;
67892;PMS7003;54688;52.376;16.744;2023-02-28T19:05:06;145;112;
67892;PMS7003;54688;52.376;16.744;2023-02-28T19:08:08;129;95;
67892;PMS7003;54688;52.376;16.744;2023-02-28T19:11:13;120;89;
67892;PMS7003;54688;52.376;16.744;2023-02-28T19:14:15;118;97;
67892;PMS7003;54688;52.376;16.744;2023-02-28T19:17:18;137;112;
67892;PMS7003;54688;52.376;16.744;2023-02-28T19:20:20;139;110;
67892;PMS7003;54688;52.376;16.744;2023-02-28T19:23:23;94;82;
67892;PMS7003;54688;52.376;16.744;2023-02-28T19:26:25;114;90;
67892;PMS7003;54688;52.376;16.744;2023-02-28T19:29:28;134;99;
67892;PMS7003;54688;52.376;16.744;2023-02-28T19:32:30;159;127;
67892;PMS7003;54688;52.376;16.744;2023-02-28T19:35:33;97;80;
67892;PMS7003;54688;52.376;16.744;2023-02-28T19:38:34;94;75;
67892;PMS7003;54688;52.376;16.744;2023-02-28T19:41:37;81;62;
67892;PMS7003;54688;52.376;16.744;2023-02-28T19:44:40;84;60;
67892;PMS7003;54688;52.376;16.744;2023-02-28T19:47:42;99;72;
67892;PMS7003;54688;52.376;16.744;2023-02-28T19:50:44;91;75;
67892;PMS7003;54688;52.376;16.744;2023-02-28T19:53:46;88;70;
67892;PMS7003;54688;52.376;16.744;2023-02-28T19:56:49;93;73;
67892;PMS7003;54688;52.376;16.744;2023-02-28T19:59:51;106;84;
67892;PMS7003;54688;52.376;16.744;2023-02-28T20:02:52;106;81;
67892;PMS7003;54688;52.376;16.744;2023-02-28T20:08:55;92;68;
67892;PMS7003;54688;52.376;16.744;2023-02-28T20:11:57;86;69;
67892;PMS7003;54688;52.376;16.744;2023-02-28T20:17:57;96;78;
67892;PMS7003;54688;52.376;16.744;2023-02-28T20:20:59;114;79;
67892;PMS7003;54688;52.376;16.744;2023-02-28T20:24:01;109;90;
67892;PMS7003;54688;52.376;16.744;2023-02-28T20:27:04;111;93;
67892;PMS7003;54688;52.376;16.744;2023-02-28T20:30:07;120;96;
67892;PMS7003;54688;52.376;16.744;2023-02-28T20:33:10;124;88;
67892;PMS7003;54688;52.376;16.744;2023-02-28T20:36:11;109;94;
67892;PMS7003;54688;52.376;16.744;2023-02-28T20:39:13;120;96;
67892;PMS7003;54688;52.376;16.744;2023-02-28T20:42:16;114;83;
67892;PMS7003;54688;52.376;16.744;2023-02-28T20:45:18;96;84;
67892;PMS7003;54688;52.376;16.744;2023-02-28T20:48:20;107;85;
67892;PMS7003;54688;52.376;16.744;2023-02-28T20:51:23;105;80;
67892;PMS7003;54688;52.376;16.744;2023-02-28T20:54:25;94;72;
67892;PMS7003;54688;52.376;16.744;2023-02-28T20:57:27;93;68;